Time;durP1;ratioP1;P1;durP2;ratioP2;P2;SDS_P1;SDS_P2;PMS_P1;PMS_P2;Temp;Humidity;BMP_temperature;BMP_pressure;BME280_temperature;BME280_humidity;BME280_pressure;Samples;Min_cycle;Max_cycle;Signal;HPM_P1;HPM_P2
2024/02/24 00:02:06;;;;;;;2.40;0.83;;;;;;;;;;4863496;29;20468;-85
2024/02/24 00:04:51;;;;;;;1.33;1.17;;;;;;;;;;4869078;29;20452;-86
2024/02/24 00:07:54;;;;;;;0.73;0.70;;;;;;;;;;4856315;29;20589;-85
2024/02/24 00:11:00;;;;;;;0.70;0.70;;;;;;;;;;4865163;29;20461;-85
2024/02/24 00:13:42;;;;;;;0.90;0.90;;;;;;;;;;4878556;29;20489;-86
2024/02/24 00:16:28;;;;;;;4.43;0.93;;;;;;;;;;4892909;29;21506;-87
2024/02/24 00:19:10;;;;;;;0.90;0.80;;;;;;;;;;4892915;29;20493;-85
2024/02/24 00:21:54;;;;;;;2.60;0.90;;;;;;;;;;4898069;29;20633;-87
2024/02/24 00:24:44;;;;;;;0.97;0.80;;;;;;;;;;4886417;29;20469;-84
2024/02/24 00:27:35;;;;;;;1.90;1.13;;;;;;;;;;4908945;29;20528;-86
2024/02/24 00:30:15;;;;;;;0.87;0.87;;;;;;;;;;4923924;28;20465;-87
2024/02/24 00:32:55;;;;;;;0.80;0.70;;;;;;;;;;4932535;28;20484;-87
2024/02/24 00:35:55;;;;;;;0.80;0.70;;;;;;;;;;4925153;28;20441;-85
2024/02/24 00:38:41;;;;;;;0.87;0.87;;;;;;;;;;4948113;28;20497;-87
2024/02/24 00:41:11;;;;;;;1.37;0.83;;;;;;;;;;4956088;28;20455;-85
2024/02/24 00:43:49;;;;;;;0.97;0.50;;;;;;;;;;4935113;28;20477;-87
2024/02/24 00:46:37;;;;;;;0.60;0.60;;;;;;;;;;4916268;28;20468;-86
2024/02/24 00:49:50;;;;;;;0.90;0.90;;;;;;;;;;4938832;28;20444;-88
2024/02/24 00:52:33;;;;;;;0.83;0.77;;;;;;;;;;4948521;28;20481;-87
2024/02/24 00:55:38;;;;;;;0.80;0.73;;;;;;;;;;4925575;28;20572;-84
2024/02/24 00:58:12;;;;;;;4.20;1.10;;;;;;;;;;4938955;28;21596;-86
2024/02/24 01:01:09;;;;;;;1.10;1.00;;;;;;;;;;4936717;28;20497;-86
2024/02/24 01:03:39;;;;;;;1.13;0.77;;;;;;;;;;4934023;28;20487;-84
2024/02/24 01:06:23;;;;;;;1.77;1.10;;;;;;;;;;4919282;29;20447;-84
2024/02/24 01:09:21;;;;;;;1.37;0.80;;;;;;;;;;4929310;29;20617;-86
2024/02/24 01:15:13;;;;;;;0.80;0.80;;;;;;;;;;4942375;28;21606;-86
2024/02/24 01:18:29;;;;;;;;;;;;;;;;;;;;;
2024/02/24 01:21:21;;;;;;;0.60;0.60;;;;;;;;;;4938127;28;20443;-86
2024/02/24 01:24:11;;;;;;;0.50;0.50;;;;;;;;;;4933002;28;20528;-87
2024/02/24 01:27:12;;;;;;;0.60;0.60;;;;;;;;;;4936691;28;20464;-87
2024/02/24 01:29:58;;;;;;;1.50;0.77;;;;;;;;;;4936395;28;21269;-85
2024/02/24 01:35:44;;;;;;;2.30;0.50;;;;;;;;;;4937477;28;20494;-86
2024/02/24 01:38:17;;;;;;;3.27;0.77;;;;;;;;;;4946278;28;20810;-85
2024/02/24 01:41:06;;;;;;;1.10;0.40;;;;;;;;;;4947914;28;20549;-85
2024/02/24 01:43:45;;;;;;;0.60;0.60;;;;;;;;;;4937505;28;20484;-85
2024/02/24 01:46:42;;;;;;;0.57;0.57;;;;;;;;;;4945338;28;20725;-85
2024/02/24 01:49:32;;;;;;;0.83;0.77;;;;;;;;;;4915992;28;20441;-85
2024/02/24 01:52:11;;;;;;;0.80;0.60;;;;;;;;;;4931015;28;20500;-86
2024/02/24 01:55:03;;;;;;;0.60;0.60;;;;;;;;;;4936190;28;20456;-86
2024/02/24 01:57:44;;;;;;;0.60;0.57;;;;;;;;;;4938687;28;20559;-85
2024/02/24 02:00:16;;;;;;;0.80;0.80;;;;;;;;;;4941003;28;20997;-84
2024/02/24 02:03:06;;;;;;;0.70;0.70;;;;;;;;;;4930352;28;20507;-84
2024/02/24 02:05:40;;;;;;;0.50;0.50;;;;;;;;;;4931727;28;20809;-84
2024/02/24 02:08:31;;;;;;;0.77;0.77;;;;;;;;;;4933410;28;21981;-85
2024/02/24 02:11:26;;;;;;;0.93;0.90;;;;;;;;;;4942656;28;21164;-87
2024/02/24 02:14:35;;;;;;;2.77;0.90;;;;;;;;;;4944250;28;20955;-85
2024/02/24 02:21:03;;;;;;;2.10;1.00;;;;;;;;;;4890372;29;20815;-84
2024/02/24 02:26:47;;;;;;;0.70;0.63;;;;;;;;;;4927481;29;20466;-87
2024/02/24 02:29:28;;;;;;;2.20;0.87;;;;;;;;;;4915607;29;20518;-87
2024/02/24 02:43:06;;;;;;;0.77;0.70;;;;;;;;;;4955227;28;20563;-85
2024/02/24 02:45:57;;;;;;;1.27;0.80;;;;;;;;;;4956257;28;20492;-85
2024/02/24 02:48:43;;;;;;;1.67;0.70;;;;;;;;;;4939695;28;20457;-87
2024/02/24 02:51:30;;;;;;;2.03;0.70;;;;;;;;;;4943938;28;20449;-85
2024/02/24 02:54:04;;;;;;;0.93;0.77;;;;;;;;;;4942956;28;20461;-87
2024/02/24 02:57:00;;;;;;;0.60;0.60;;;;;;;;;;4944999;28;20460;-85
2024/02/24 02:59:45;;;;;;;1.07;1.07;;;;;;;;;;4961091;28;20575;-83
2024/02/24 03:02:39;;;;;;;1.50;0.63;;;;;;;;;;4949232;28;20485;-83
2024/02/24 03:05:22;;;;;;;0.80;0.80;;;;;;;;;;4942125;28;20488;-83
2024/02/24 03:08:04;;;;;;;1.63;0.80;;;;;;;;;;4939386;28;20464;-85
2024/02/24 03:10:56;;;;;;;0.70;0.70;;;;;;;;;;4937693;28;20455;-85
2024/02/24 03:13:29;;;;;;;0.40;0.40;;;;;;;;;;4939931;28;20489;-84
2024/02/24 03:16:01;;;;;;;1.30;0.90;;;;;;;;;;4937649;28;20526;-86
2024/02/24 03:19:03;;;;;;;0.70;0.60;;;;;;;;;;4940994;28;20420;-86
2024/02/24 03:21:44;;;;;;;0.47;0.47;;;;;;;;;;4940382;28;20483;-85
2024/02/24 03:24:22;;;;;;;1.17;0.80;;;;;;;;;;4942146;28;20847;-85
2024/02/24 03:26:50;;;;;;;0.83;0.80;;;;;;;;;;4947269;28;20449;-86
2024/02/24 03:29:23;;;;;;;0.70;0.70;;;;;;;;;;4943431;28;20475;-86
2024/02/24 03:32:03;;;;;;;1.23;1.13;;;;;;;;;;4960352;28;20967;-86
2024/02/24 03:34:54;;;;;;;1.40;0.90;;;;;;;;;;4928924;28;20553;-86
2024/02/24 03:37:32;;;;;;;0.70;0.70;;;;;;;;;;4972930;28;20449;-86
2024/02/24 03:40:31;;;;;;;1.33;1.00;;;;;;;;;;4969047;28;20486;-87
2024/02/24 03:46:27;;;;;;;0.70;0.70;;;;;;;;;;4885726;29;20467;-83
2024/02/24 03:49:24;;;;;;;0.60;0.60;;;;;;;;;;4886164;29;20967;-84
2024/02/24 03:51:57;;;;;;;1.07;0.97;;;;;;;;;;4863920;29;20522;-86
2024/02/24 03:55:28;;;;;;;2.40;0.80;;;;;;;;;;4873052;29;22021;-85
2024/02/24 03:57:55;;;;;;;2.10;0.80;;;;;;;;;;4886741;29;20488;-85
2024/02/24 04:01:10;;;;;;;2.60;0.80;;;;;;;;;;4921777;28;20548;-84
2024/02/24 04:04:04;;;;;;;4.23;3.30;;;;;;;;;;4947996;28;21253;-83
2024/02/24 04:09:52;;;;;;;1.53;0.60;;;;;;;;;;4956797;28;20449;-84
2024/02/24 04:12:45;;;;;;;0.70;0.70;;;;;;;;;;4951135;28;20488;-85
2024/02/24 04:15:38;;;;;;;1.00;0.70;;;;;;;;;;4882126;29;20502;-84
2024/02/24 04:18:45;;;;;;;2.03;1.00;;;;;;;;;;4885108;29;20490;-83
2024/02/24 04:21:42;;;;;;;0.63;0.63;;;;;;;;;;4862582;29;20538;-86
2024/02/24 04:24:17;;;;;;;0.93;0.83;;;;;;;;;;4869654;29;21473;-86
2024/02/24 04:27:16;;;;;;;1.03;1.00;;;;;;;;;;4857858;29;20437;-87
2024/02/24 04:30:17;;;;;;;0.60;0.53;;;;;;;;;;4863045;29;20570;-86
2024/02/24 04:36:54;;;;;;;0.60;0.60;;;;;;;;;;4867119;29;20521;-86
2024/02/24 04:39:52;;;;;;;1.70;0.93;;;;;;;;;;4843846;29;20507;-86
2024/02/24 04:45:57;;;;;;;1.73;0.77;;;;;;;;;;4846701;29;20575;-86
2024/02/24 04:49:00;;;;;;;;;;;;;;;;;;;;;
2024/02/24 04:52:13;;;;;;;1.00;1.00;;;;;;;;;;4871313;29;20513;-86
2024/02/24 04:55:01;;;;;;;1.20;1.00;;;;;;;;;;4908195;29;20457;-86
2024/02/24 04:57:50;;;;;;;0.93;0.83;;;;;;;;;;4920441;28;20441;-86
2024/02/24 05:00:37;;;;;;;2.70;0.80;;;;;;;;;;4951700;28;20503;-88
2024/02/24 05:03:22;;;;;;;0.77;0.77;;;;;;;;;;4963316;28;21092;-84
2024/02/24 05:06:36;;;;;;;;;;;;;;;;;;;;;
2024/02/24 05:09:35;;;;;;;0.83;0.77;;;;;;;;;;4956029;28;20455;-85
2024/02/24 05:12:53;;;;;;;1.17;0.90;;;;;;;;;;4954057;28;21041;-85
2024/02/24 05:16:04;;;;;;;1.17;0.80;;;;;;;;;;4951192;28;20568;-85
2024/02/24 05:18:45;;;;;;;0.80;0.80;;;;;;;;;;4963775;28;20456;-84
2024/02/24 05:27:46;;;;;;;1.00;0.90;;;;;;;;;;4956278;28;20975;-84
2024/02/24 05:30:27;;;;;;;1.90;1.00;;;;;;;;;;4969583;28;20452;-83
2024/02/24 05:33:27;;;;;;;1.03;0.73;;;;;;;;;;4966959;28;20506;-84
2024/02/24 05:39:52;;;;;;;0.83;0.70;;;;;;;;;;4948582;28;20421;-84
2024/02/24 05:43:26;;;;;;;1.90;1.00;;;;;;;;;;4895522;29;20478;-88
2024/02/24 05:46:25;;;;;;;1.17;1.07;;;;;;;;;;4916781;29;20539;-86
2024/02/24 05:49:50;;;;;;;1.27;0.90;;;;;;;;;;4910649;29;20438;-86
2024/02/24 05:52:57;;;;;;;2.27;1.10;;;;;;;;;;4820677;29;20561;-85
2024/02/24 05:59:31;;;;;;;;;;;;;;;;;;;;;
2024/02/24 06:02:44;;;;;;;1.23;1.10;;;;;;;;;;4927488;28;20624;-86
2024/02/24 06:05:54;;;;;;;2.20;1.20;;;;;;;;;;4913738;29;20513;-86
2024/02/24 06:08:24;;;;;;;1.40;1.30;;;;;;;;;;4907802;29;20450;-85
2024/02/24 06:11:07;;;;;;;2.00;1.40;;;;;;;;;;4918236;29;20458;-85
2024/02/24 06:14:12;;;;;;;2.80;1.83;;;;;;;;;;4895239;29;20557;-86
2024/02/24 06:21:26;;;;;;;1.40;1.30;;;;;;;;;;4866855;29;21199;-87
2024/02/24 06:24:10;;;;;;;1.60;1.50;;;;;;;;;;4916821;29;20494;-86
2024/02/24 06:26:51;;;;;;;2.27;2.07;;;;;;;;;;4955416;28;20962;-86
2024/02/24 06:33:21;;;;;;;1.60;1.50;;;;;;;;;;4902517;29;20596;-86
2024/02/24 06:39:59;;;;;;;1.77;1.60;;;;;;;;;;4863389;29;20463;-85
2024/02/24 06:45:19;;;;;;;1.63;1.53;;;;;;;;;;4943516;28;20465;-85
2024/02/24 06:48:01;;;;;;;3.60;1.57;;;;;;;;;;4943017;29;20457;-85
2024/02/24 06:53:58;;;;;;;1.90;1.43;;;;;;;;;;4937110;28;20562;-86
2024/02/24 07:00:21;;;;;;;;;;;;;;;;;;;;;
2024/02/24 07:03:44;;;;;;;2.93;1.50;;;;;;;;;;4951864;28;20510;-86
2024/02/24 07:06:41;;;;;;;;;;;;;;;;;;;;;
2024/02/24 07:09:34;;;;;;;1.40;1.30;;;;;;;;;;4952646;29;20571;-89
2024/02/24 07:15:43;;;;;;;1.27;1.17;;;;;;;;;;4927964;28;21931;-87
2024/02/24 07:18:53;;;;;;;1.17;1.10;;;;;;;;;;4930537;29;20458;-87
2024/02/24 07:21:53;;;;;;;3.00;0.87;;;;;;;;;;4953272;29;20499;-85
2024/02/24 07:27:55;;;;;;;1.13;1.03;;;;;;;;;;4947841;29;20811;-85
2024/02/24 07:31:05;;;;;;;;;;;;;;;;;;;;;
2024/02/24 07:34:06;;;;;;;1.90;1.13;;;;;;;;;;4948320;29;20614;-86
2024/02/24 07:37:01;;;;;;;1.23;1.00;;;;;;;;;;4907838;28;20463;-85
2024/02/24 07:40:14;;;;;;;0.97;0.87;;;;;;;;;;4950171;28;20449;-84
2024/02/24 07:43:02;;;;;;;0.90;0.90;;;;;;;;;;5017725;23;20716;-86
2024/02/24 07:45:50;;;;;;;1.00;0.90;;;;;;;;;;4944326;29;20477;-86
2024/02/24 07:48:25;;;;;;;0.60;0.60;;;;;;;;;;4963334;28;20476;-85
2024/02/24 07:51:22;;;;;;;1.37;0.83;;;;;;;;;;4944359;28;20577;-84
2024/02/24 07:54:15;;;;;;;1.77;1.40;;;;;;;;;;4931140;29;20468;-85
2024/02/24 07:56:58;;;;;;;2.40;1.50;;;;;;;;;;4929125;29;20466;-84
2024/02/24 08:00:10;;;;;;;1.20;1.13;;;;;;;;;;4939500;29;20481;-86
2024/02/24 08:02:59;;;;;;;;;;;;;;;;;;;;;
2024/02/24 08:05:50;;;;;;;2.20;1.40;;;;;;;;;;4936442;29;22129;-85
2024/02/24 08:08:43;;;;;;;1.80;0.90;;;;;;;;;;4944362;29;20455;-86
2024/02/24 08:12:05;;;;;;;;;;;;;;;;;;;;;
2024/02/24 08:14:57;;;;;;;1.27;1.00;;;;;;;;;;4872289;29;20576;-85
2024/02/24 08:20:54;;;;;;;1.00;0.80;;;;;;;;;;4876948;29;20504;-87
2024/02/24 08:24:06;;;;;;;1.43;0.90;;;;;;;;;;4889937;29;20468;-86
2024/02/24 08:27:00;;;;;;;1.53;0.93;;;;;;;;;;4877620;29;20463;-87
2024/02/24 08:30:12;;;;;;;1.67;0.50;;;;;;;;;;4872081;29;20518;-83
2024/02/24 08:33:22;;;;;;;0.50;0.50;;;;;;;;;;4839196;29;20496;-89
2024/02/24 08:36:44;;;;;;;0.80;0.57;;;;;;;;;;4823485;29;20485;-85
2024/02/24 08:39:16;;;;;;;1.40;0.60;;;;;;;;;;4839204;29;20447;-86
2024/02/24 08:48:45;;;;;;;1.40;0.50;;;;;;;;;;4891148;29;20525;-86
2024/02/24 08:55:21;;;;;;;2.00;1.00;;;;;;;;;;4904907;28;20468;-83
2024/02/24 08:58:06;;;;;;;0.90;0.90;;;;;;;;;;4940729;29;20463;-85
2024/02/24 09:00:58;;;;;;;0.77;0.47;;;;;;;;;;4957359;29;20598;-82
2024/02/24 09:03:59;;;;;;;0.80;0.50;;;;;;;;;;4926658;29;20510;-86
2024/02/24 09:06:47;;;;;;;0.60;0.40;;;;;;;;;;4954628;29;20496;-84
2024/02/24 09:09:47;;;;;;;3.33;0.50;;;;;;;;;;4952500;29;20448;-84
2024/02/24 09:12:55;;;;;;;0.87;0.70;;;;;;;;;;4889598;29;20476;-83
2024/02/24 09:15:45;;;;;;;1.47;0.43;;;;;;;;;;4872216;29;20445;-85
2024/02/24 09:18:40;;;;;;;2.50;1.30;;;;;;;;;;4874438;29;20512;-85
2024/02/24 09:21:38;;;;;;;0.60;0.50;;;;;;;;;;4847951;29;20493;-84
2024/02/24 09:24:41;;;;;;;0.50;0.40;;;;;;;;;;4831017;29;20475;-84
2024/02/24 09:27:23;;;;;;;0.90;0.57;;;;;;;;;;4853754;29;20530;-82
2024/02/24 09:30:18;;;;;;;0.50;0.40;;;;;;;;;;4898842;29;20465;-83
2024/02/24 09:33:04;;;;;;;;;;;;;;;;;;;;;
2024/02/24 09:35:52;;;;;;;0.30;0.30;;;;;;;;;;4922021;29;20471;-86
2024/02/24 09:38:45;;;;;;;1.57;0.40;;;;;;;;;;4930067;29;20455;-83
2024/02/24 09:41:47;;;;;;;1.37;0.50;;;;;;;;;;4912945;29;21016;-84
2024/02/24 09:44:51;;;;;;;0.57;0.40;;;;;;;;;;4924955;29;20483;-86
2024/02/24 09:51:09;;;;;;;0.53;0.53;;;;;;;;;;4947760;29;20477;-88
2024/02/24 09:54:03;;;;;;;0.40;0.40;;;;;;;;;;4937532;29;20465;-86
2024/02/24 09:57:05;;;;;;;0.47;0.40;;;;;;;;;;4888421;29;21173;-84
2024/02/24 10:00:09;;;;;;;;;;;;;;;;;;;;;
2024/02/24 10:02:44;;;;;;;2.53;0.50;;;;;;;;;;4888641;29;20500;-85
2024/02/24 10:05:39;;;;;;;0.30;0.30;;;;;;;;;;4886143;29;20502;-87
2024/02/24 10:08:18;;;;;;;0.40;0.40;;;;;;;;;;4884736;29;20477;-86
2024/02/24 10:11:10;;;;;;;0.77;0.30;;;;;;;;;;4864342;29;20437;-88
2024/02/24 10:13:45;;;;;;;0.60;0.50;;;;;;;;;;4879044;29;20496;-87
2024/02/24 10:16:50;;;;;;;0.50;0.50;;;;;;;;;;4881259;29;20476;-85
2024/02/24 10:19:23;;;;;;;0.50;0.50;;;;;;;;;;4877034;29;20454;-84
2024/02/24 10:22:16;;;;;;;0.90;0.43;;;;;;;;;;4886035;29;20504;-87
2024/02/24 10:28:00;;;;;;;3.60;1.07;;;;;;;;;;4875213;29;20493;-87
2024/02/24 10:31:03;;;;;;;0.53;0.53;;;;;;;;;;4881117;29;21211;-85
2024/02/24 10:34:01;;;;;;;0.60;0.50;;;;;;;;;;4906570;29;20449;-85
2024/02/24 10:36:55;;;;;;;0.60;0.60;;;;;;;;;;4933043;29;20446;-85
2024/02/24 10:39:38;;;;;;;0.40;0.40;;;;;;;;;;4931220;29;20465;-82
2024/02/24 10:42:28;;;;;;;0.73;0.60;;;;;;;;;;4940024;29;20498;-86
2024/02/24 10:48:45;;;;;;;0.60;0.60;;;;;;;;;;4940859;29;20454;-86
2024/02/24 10:51:41;;;;;;;1.30;0.77;;;;;;;;;;4928663;29;20463;-86
2024/02/24 10:55:16;;;;;;;0.60;0.50;;;;;;;;;;4922053;29;20549;-85
2024/02/24 10:57:50;;;;;;;0.60;0.60;;;;;;;;;;4931296;29;20457;-84
2024/02/24 11:00:38;;;;;;;0.87;0.70;;;;;;;;;;4928390;29;20469;-84
2024/02/24 11:03:27;;;;;;;0.73;0.50;;;;;;;;;;4912771;29;20533;-86
2024/02/24 11:13:26;;;;;;;1.50;1.40;;;;;;;;;;4887713;29;20443;-87
2024/02/24 11:16:20;;;;;;;0.90;0.47;;;;;;;;;;4889839;29;20450;-85
2024/02/24 11:19:27;;;;;;;0.53;0.53;;;;;;;;;;4894192;29;20456;-86
2024/02/24 11:22:30;;;;;;;0.67;0.60;;;;;;;;;;4927148;29;20502;-85
2024/02/24 11:25:36;;;;;;;0.83;0.60;;;;;;;;;;4929094;29;20473;-87
2024/02/24 11:28:37;;;;;;;1.03;0.83;;;;;;;;;;4927992;29;20450;-85
2024/02/24 11:34:37;;;;;;;1.27;0.70;;;;;;;;;;4898593;29;20520;-86
2024/02/24 11:37:45;;;;;;;0.80;0.70;;;;;;;;;;4929566;29;20453;-85
2024/02/24 11:43:53;;;;;;;0.97;0.70;;;;;;;;;;4925623;29;20509;-86
2024/02/24 11:46:46;;;;;;;0.73;0.67;;;;;;;;;;4930373;29;20459;-84
2024/02/24 11:49:19;;;;;;;0.50;0.50;;;;;;;;;;4932542;29;20452;-85
2024/02/24 11:55:15;;;;;;;0.60;0.60;;;;;;;;;;4896133;29;20538;-85
2024/02/24 11:57:48;;;;;;;0.40;0.40;;;;;;;;;;4919475;29;20450;-85
2024/02/24 12:00:53;;;;;;;;;;;;;;;;;;;;;
2024/02/24 12:03:46;;;;;;;0.90;0.60;;;;;;;;;;4931138;29;20597;-86
2024/02/24 12:11:03;;;;;;;;;;;;;;;;;;;;;
2024/02/24 12:14:04;;;;;;;1.90;0.60;;;;;;;;;;4801555;29;22176;-86
2024/02/24 12:17:05;;;;;;;0.70;0.50;;;;;;;;;;4844695;29;20562;-89
2024/02/24 12:20:04;;;;;;;0.40;0.40;;;;;;;;;;4873857;29;20464;-84
2024/02/24 12:26:15;;;;;;;0.60;0.60;;;;;;;;;;4951580;28;20469;-86
2024/02/24 12:29:17;;;;;;;0.60;0.60;;;;;;;;;;4948915;28;20454;-86
2024/02/24 12:32:52;;;;;;;;;;;;;;;;;;;;;
2024/02/24 12:45:09;;;;;;;2.30;0.87;;;;;;;;;;4865396;29;20542;-86
2024/02/24 12:48:12;;;;;;;0.77;0.70;;;;;;;;;;4899140;29;20444;-87
2024/02/24 12:51:37;;;;;;;1.67;0.70;;;;;;;;;;4880275;29;20501;-84
2024/02/24 13:05:30;;;;;;;0.63;0.60;;;;;;;;;;4993620;28;20502;-87
2024/02/24 13:08:06;;;;;;;1.37;0.97;;;;;;;;;;4992799;28;20467;-86
2024/02/24 13:11:08;;;;;;;1.00;0.70;;;;;;;;;;4956490;28;20477;-85
2024/02/24 13:19:59;;;;;;;;;;;;;;;;;;;;;
2024/02/24 13:22:58;;;;;;;0.60;0.47;;;;;;;;;;4961345;28;20485;-84
2024/02/24 13:29:11;;;;;;;0.70;0.60;;;;;;;;;;4977307;28;20574;-86
2024/02/24 13:32:06;;;;;;;1.77;0.57;;;;;;;;;;4960784;28;20442;-83
2024/02/24 13:35:45;;;;;;;;;;;;;;;;;;;;;
2024/02/24 13:38:53;;;;;;;;;;;;;;;;;;;;;
2024/02/24 13:42:11;;;;;;;;;;;;;;;;;;;;;
2024/02/24 13:48:51;;;;;;;;;;;;;;;;;;;;;
2024/02/24 13:51:36;;;;;;;2.20;0.50;;;;;;;;;;4901720;29;21729;-85
2024/02/24 13:54:59;;;;;;;1.00;0.40;;;;;;;;;;4990539;23;20524;-85
2024/02/24 13:57:45;;;;;;;0.50;0.50;;;;;;;;;;4942728;28;21698;-86
2024/02/24 14:00:59;;;;;;;;;;;;;;;;;;;;;
2024/02/24 14:03:50;;;;;;;3.30;0.47;;;;;;;;;;4906895;29;20852;-85
2024/02/24 14:06:36;;;;;;;0.50;0.50;;;;;;;;;;4938400;28;20457;-85
2024/02/24 14:09:26;;;;;;;0.40;0.40;;;;;;;;;;4947085;29;20469;-84
2024/02/24 14:12:27;;;;;;;0.73;0.57;;;;;;;;;;4933737;28;20466;-86
2024/02/24 14:18:37;;;;;;;1.43;0.33;;;;;;;;;;4933037;28;20476;-85
2024/02/24 14:21:13;;;;;;;1.17;0.63;;;;;;;;;;4934755;28;20474;-84
2024/02/24 14:24:38;;;;;;;0.70;0.57;;;;;;;;;;4904509;29;20453;-86
2024/02/24 14:27:27;;;;;;;0.80;0.50;;;;;;;;;;4902960;29;20514;-88
2024/02/24 14:37:18;;;;;;;0.87;0.50;;;;;;;;;;4880420;29;20488;-85
2024/02/24 14:40:11;;;;;;;0.57;0.57;;;;;;;;;;4880548;29;20476;-85
2024/02/24 14:43:02;;;;;;;1.13;0.50;;;;;;;;;;4868390;29;20509;-85
2024/02/24 14:46:02;;;;;;;1.03;0.47;;;;;;;;;;4927330;28;20442;-86
2024/02/24 14:51:49;;;;;;;0.83;0.40;;;;;;;;;;4950664;28;20451;-84
2024/02/24 14:54:48;;;;;;;0.87;0.87;;;;;;;;;;4940355;28;20464;-87
2024/02/24 14:57:36;;;;;;;1.37;0.60;;;;;;;;;;4947959;29;20516;-86
2024/02/24 15:00:32;;;;;;;0.90;0.77;;;;;;;;;;4943062;28;20837;-84
2024/02/24 15:03:47;;;;;;;2.20;0.50;;;;;;;;;;4997552;23;20505;-86
2024/02/24 15:06:45;;;;;;;1.57;0.60;;;;;;;;;;4919630;29;20441;-86
2024/02/24 15:09:29;;;;;;;0.80;0.50;;;;;;;;;;4929974;29;20450;-86
2024/02/24 15:12:10;;;;;;;0.67;0.67;;;;;;;;;;4937307;28;20471;-88
2024/02/24 15:15:08;;;;;;;0.40;0.30;;;;;;;;;;4920627;29;20521;-85
2024/02/24 15:17:58;;;;;;;0.77;0.50;;;;;;;;;;4930325;29;20527;-87
2024/02/24 15:23:35;;;;;;;0.50;0.50;;;;;;;;;;5005141;23;20494;-85
2024/02/24 15:26:32;;;;;;;0.70;0.60;;;;;;;;;;4941552;28;22499;-86
2024/02/24 15:29:29;;;;;;;0.70;0.50;;;;;;;;;;4966726;28;21301;-85
2024/02/24 15:32:06;;;;;;;0.80;0.50;;;;;;;;;;4970647;28;20456;-85
2024/02/24 15:34:50;;;;;;;0.90;0.70;;;;;;;;;;4866550;29;20547;-86
2024/02/24 15:37:44;;;;;;;1.60;0.87;;;;;;;;;;4883984;29;20493;-85
2024/02/24 15:41:31;;;;;;;1.37;0.40;;;;;;;;;;4875147;29;20967;-86
2024/02/24 15:44:24;;;;;;;;;;;;;;;;;;;;;
2024/02/24 15:47:04;;;;;;;2.97;0.87;;;;;;;;;;4956013;28;20461;-87
2024/02/24 15:49:52;;;;;;;1.90;0.70;;;;;;;;;;4931926;28;20458;-83
2024/02/24 15:52:35;;;;;;;1.37;0.40;;;;;;;;;;4941813;28;20477;-84
2024/02/24 15:55:57;;;;;;;0.67;0.40;;;;;;;;;;4890432;29;20456;-86
2024/02/24 15:58:47;;;;;;;0.53;0.43;;;;;;;;;;4890941;29;21887;-85
2024/02/24 16:04:56;;;;;;;2.33;0.80;;;;;;;;;;4896012;29;20576;-85
2024/02/24 16:08:00;;;;;;;1.83;0.70;;;;;;;;;;4890651;29;20980;-84
2024/02/24 16:10:33;;;;;;;2.63;0.67;;;;;;;;;;4891393;29;20508;-85
2024/02/24 16:13:30;;;;;;;2.80;1.20;;;;;;;;;;4877883;29;20487;-84
2024/02/24 16:19:53;;;;;;;;;;;;;;;;;;;;;
2024/02/24 16:22:53;;;;;;;1.83;0.40;;;;;;;;;;4931539;29;20476;-84
2024/02/24 16:29:11;;;;;;;1.33;0.60;;;;;;;;;;4931651;29;20458;-86
2024/02/24 16:31:57;;;;;;;1.20;0.60;;;;;;;;;;4941217;29;20493;-85
2024/02/24 16:34:49;;;;;;;0.83;0.50;;;;;;;;;;4950175;29;20471;-84
2024/02/24 16:37:41;;;;;;;1.70;1.00;;;;;;;;;;4945147;29;20481;-84
2024/02/24 16:40:39;;;;;;;1.03;0.57;;;;;;;;;;4922790;29;20465;-86
2024/02/24 16:43:28;;;;;;;0.53;0.40;;;;;;;;;;4932850;29;20500;-84
2024/02/24 16:46:07;;;;;;;0.50;0.50;;;;;;;;;;4943131;29;20449;-86
2024/02/24 16:48:56;;;;;;;0.60;0.60;;;;;;;;;;4935288;28;20442;-86
2024/02/24 16:52:14;;;;;;;0.80;0.50;;;;;;;;;;4946171;28;20461;-85
2024/02/24 16:55:05;;;;;;;0.93;0.63;;;;;;;;;;4936770;29;20470;-84
2024/02/24 16:57:58;;;;;;;0.50;0.50;;;;;;;;;;4931400;29;20608;-84
2024/02/24 17:00:48;;;;;;;0.60;0.60;;;;;;;;;;4868656;29;20489;-85
2024/02/24 17:13:36;;;;;;;3.00;1.20;;;;;;;;;;4852823;29;20460;-86
2024/02/24 17:20:13;;;;;;;1.13;0.90;;;;;;;;;;4803644;29;20484;-84
2024/02/24 17:23:30;;;;;;;0.70;0.70;;;;;;;;;;4845369;29;20502;-84
2024/02/24 17:30:09;;;;;;;1.00;0.60;;;;;;;;;;4927397;29;20434;-88
2024/02/24 17:32:52;;;;;;;0.63;0.60;;;;;;;;;;4911003;29;20561;-85
2024/02/24 17:35:49;;;;;;;;;;;;;;;;;;;;;
2024/02/24 17:38:39;;;;;;;;;;;;;;;;;;;;;
2024/02/24 17:44:36;;;;;;;1.00;0.73;;;;;;;;;;4925860;28;20614;-85
2024/02/24 17:47:29;;;;;;;1.03;0.80;;;;;;;;;;4946139;28;20546;-87
2024/02/24 17:50:40;;;;;;;2.10;1.20;;;;;;;;;;4921835;29;20447;-85
2024/02/24 17:56:21;;;;;;;1.90;1.00;;;;;;;;;;4930214;29;20442;-85
2024/02/24 17:59:00;;;;;;;1.20;1.10;;;;;;;;;;4929186;29;20462;-84
2024/02/24 18:01:39;;;;;;;2.00;0.90;;;;;;;;;;4940184;29;20458;-88
2024/02/24 18:04:16;;;;;;;1.17;1.07;;;;;;;;;;4943385;28;21017;-84
2024/02/24 18:07:14;;;;;;;1.97;1.50;;;;;;;;;;4943245;29;20767;-85
2024/02/24 18:14:05;;;;;;;1.27;1.00;;;;;;;;;;4940444;29;20480;-84
2024/02/24 18:17:04;;;;;;;0.70;0.70;;;;;;;;;;4927988;29;20466;-84
2024/02/24 18:19:54;;;;;;;2.37;1.20;;;;;;;;;;4905491;29;20449;-85
2024/02/24 18:22:41;;;;;;;2.33;0.90;;;;;;;;;;4955832;28;20489;-84
2024/02/24 18:25:12;;;;;;;2.27;1.20;;;;;;;;;;4942073;29;20512;-85
2024/02/24 18:27:46;;;;;;;1.73;1.30;;;;;;;;;;4931089;29;20443;-84
2024/02/24 18:30:34;;;;;;;2.70;1.27;;;;;;;;;;4943745;29;20462;-86
2024/02/24 18:33:21;;;;;;;5.57;1.23;;;;;;;;;;4926222;28;20478;-86
2024/02/24 18:36:26;;;;;;;1.23;1.10;;;;;;;;;;4933076;29;20530;-86
2024/02/24 18:39:31;;;;;;;1.50;1.40;;;;;;;;;;4943297;29;20460;-85
2024/02/24 18:42:01;;;;;;;1.20;1.10;;;;;;;;;;4928624;29;20472;-85
2024/02/24 18:44:47;;;;;;;1.37;1.00;;;;;;;;;;4918306;29;20453;-85
2024/02/24 18:47:21;;;;;;;1.43;0.90;;;;;;;;;;4962250;28;20453;-87
2024/02/24 18:49:53;;;;;;;1.43;1.17;;;;;;;;;;4943633;28;20471;-85
2024/02/24 18:52:30;;;;;;;0.83;0.73;;;;;;;;;;4959000;28;20574;-87
2024/02/24 18:55:09;;;;;;;1.60;0.93;;;;;;;;;;4960824;28;20449;-86
2024/02/24 18:57:43;;;;;;;1.03;0.70;;;;;;;;;;4952802;28;20521;-85
2024/02/24 19:00:33;;;;;;;0.80;0.80;;;;;;;;;;4952616;28;20477;-85
2024/02/24 19:03:18;;;;;;;1.90;0.93;;;;;;;;;;4951417;28;20477;-86
2024/02/24 19:05:51;;;;;;;0.70;0.70;;;;;;;;;;4952682;28;20509;-85
2024/02/24 19:08:30;;;;;;;1.43;0.70;;;;;;;;;;4951401;29;20449;-85
2024/02/24 19:11:24;;;;;;;1.13;0.70;;;;;;;;;;4947731;29;20469;-83
2024/02/24 19:16:51;;;;;;;2.93;1.33;;;;;;;;;;4936592;29;20461;-85
2024/02/24 19:19:48;;;;;;;1.00;0.70;;;;;;;;;;4953255;29;20480;-82
2024/02/24 19:22:29;;;;;;;1.07;0.80;;;;;;;;;;4924806;29;20517;-84
2024/02/24 19:25:13;;;;;;;2.00;0.73;;;;;;;;;;4938174;29;20426;-86
2024/02/24 19:28:11;;;;;;;3.70;1.00;;;;;;;;;;4950097;29;20439;-84
2024/02/24 19:31:07;;;;;;;0.80;0.80;;;;;;;;;;4945784;29;20462;-87
2024/02/24 19:34:09;;;;;;;1.97;0.93;;;;;;;;;;4954345;28;20505;-87
2024/02/24 19:37:10;;;;;;;2.13;0.90;;;;;;;;;;4949497;29;20453;-84
2024/02/24 19:39:45;;;;;;;2.40;1.10;;;;;;;;;;4951022;28;20556;-86
2024/02/24 19:42:47;;;;;;;1.17;1.07;;;;;;;;;;4962506;28;20462;-85
2024/02/24 19:45:15;;;;;;;1.00;0.97;;;;;;;;;;4929114;29;20455;-85
2024/02/24 19:50:58;;;;;;;;;;;;;;;;;;;;;
2024/02/24 19:53:37;;;;;;;1.33;1.20;;;;;;;;;;4923592;29;21174;-86
2024/02/24 19:56:17;;;;;;;1.30;1.20;;;;;;;;;;4925866;29;20458;-85
2024/02/24 19:58:59;;;;;;;2.20;1.20;;;;;;;;;;4914354;29;20458;-85
2024/02/24 20:01:29;;;;;;;1.63;1.53;;;;;;;;;;4912474;29;20562;-85
2024/02/24 20:04:11;;;;;;;2.97;1.40;;;;;;;;;;4917226;29;20498;-87
2024/02/24 20:06:45;;;;;;;4.17;1.47;;;;;;;;;;4917480;29;20471;-86
2024/02/24 20:09:26;;;;;;;2.03;1.30;;;;;;;;;;4924678;29;20451;-84
2024/02/24 20:12:08;;;;;;;1.30;1.20;;;;;;;;;;4921995;29;20537;-84
2024/02/24 20:14:53;;;;;;;2.27;1.50;;;;;;;;;;4921052;29;20522;-85
2024/02/24 20:17:29;;;;;;;2.20;1.50;;;;;;;;;;4918601;29;21037;-85
2024/02/24 20:20:22;;;;;;;3.23;1.70;;;;;;;;;;4920850;28;20438;-84
2024/02/24 20:25:37;;;;;;;1.00;1.00;;;;;;;;;;5053862;23;20508;-84
2024/02/24 20:28:13;;;;;;;1.40;1.30;;;;;;;;;;4965370;28;20539;-81
2024/02/24 20:30:48;;;;;;;1.70;1.33;;;;;;;;;;4964014;28;20488;-86
2024/02/24 20:33:22;;;;;;;1.93;1.00;;;;;;;;;;4980328;28;20547;-84
2024/02/24 20:36:08;;;;;;;1.13;0.97;;;;;;;;;;4979947;28;20421;-85
2024/02/24 20:38:46;;;;;;;1.00;0.90;;;;;;;;;;4960924;28;20509;-85
2024/02/24 20:41:25;;;;;;;0.90;0.90;;;;;;;;;;4987103;28;20487;-85
2024/02/24 20:44:04;;;;;;;1.10;1.00;;;;;;;;;;4962882;28;20502;-86
2024/02/24 20:46:49;;;;;;;1.20;1.10;;;;;;;;;;4961630;28;20456;-85
2024/02/24 20:49:26;;;;;;;2.47;1.67;;;;;;;;;;4956573;28;20463;-85
2024/02/24 20:52:13;;;;;;;2.40;1.30;;;;;;;;;;4956856;28;20464;-85
2024/02/24 20:54:48;;;;;;;4.77;1.67;;;;;;;;;;4951671;28;20563;-85
2024/02/24 20:57:29;;;;;;;1.30;1.10;;;;;;;;;;4950883;28;20964;-83
2024/02/24 21:00:14;;;;;;;1.50;1.40;;;;;;;;;;4964638;28;20476;-84
2024/02/24 21:03:00;;;;;;;1.50;1.30;;;;;;;;;;4959516;28;20511;-84
2024/02/24 21:05:43;;;;;;;1.30;1.20;;;;;;;;;;4957283;28;20451;-83
2024/02/24 21:08:20;;;;;;;1.20;1.10;;;;;;;;;;4970138;28;20519;-84
2024/02/24 21:11:00;;;;;;;;;;;;;;;;;;;;;
2024/02/24 21:13:58;;;;;;;2.10;1.30;;;;;;;;;;4968707;28;20445;-84
2024/02/24 21:16:35;;;;;;;1.63;1.53;;;;;;;;;;4983084;28;20461;-84
2024/02/24 21:19:11;;;;;;;1.90;1.13;;;;;;;;;;4985522;28;20452;-86